DURO2: Washita River Durwood, OK

Data processed at Thu Jan 04 2018 23:35


All information presented herein is the property of the government of the United States of America and may be revised or deleted at any time without prior notice.
Dissemination of this information without the expressed written consent of the Public Affairs Office, Tulsa District U.S. Army Corps of Engineers is strictly prohibited.
These data are gathered electronically and, as presented, have not undergone any form of quality control. These data are not guaranteed to be valid or correct.
Go to home page.
Go to station list.

Upstream stations:

Downstream station:
Previous Day
Next Day
Current Day
    
SHEF ID:       DURO2     Washita River near Dickson, OK
STATION TYPE:  

               PRECIP PRECIP(A)     STAGE  RIV-FLOW  BAT-LOAD
                   in        in        ft       cfs      volt
              Ccp-Rev   Ccp-Rev   Ccp-Rev   Ccp-Rev   Ccp-Rev
(US/Central)
01/02 00:00      0.00      ----      6.83       660     12.25
01/02 01:00      0.00      ----      6.77       622     12.25
01/02 02:00      0.00      ----      6.69       573     12.25
01/02 03:00      0.00      ----      6.61       522     12.17
01/02 04:00      0.00      ----      6.55       485     12.17
01/02 05:00      0.00      ----      6.50       454     12.17
01/02 06:00      0.00      ----      6.48       442     12.17
01/02 07:00      0.00      ----      6.48       442     12.17
01/02 08:00      0.00      ----      6.49       448     12.17
01/02 09:00      0.00      ----      6.48       442     12.25
01/02 10:00      0.00      ----      6.47       436     12.57
01/02 11:00      0.00      ----      6.43       412     12.89
01/02 12:00      0.00      ----      6.39       388     12.89
01/02 13:00      0.00      ----      6.34       358     12.89
01/02 14:00      0.00      ----      6.29       329     12.81
01/02 15:00      0.00      ----      6.25       306     12.65
01/02 16:00      0.00      ----      6.24       300     12.65
01/02 17:00      0.00      ----      6.27       318     12.57
01/02 18:00      0.00      ----      6.35       364     12.41
01/02 19:00      0.00      ----      6.43       412     12.41
01/02 20:00      0.00      ----      6.49       448     12.41
01/02 21:00      0.00      ----      6.57       497     12.33
01/02 22:00      0.00      ----      6.63       535     12.33
01/02 23:00      0.00      ----      6.66       554     12.33